Airfield :
LOGIN :

Register | Disclaimer

   EN    FR    IT 

 










Legend :    VFR   Marginal VFR   IFR   Intensive IFR   Very Intensive IFR
Visi :
Ceiling :
>= 8 km
>= 3000ft
5 to 8 km
1000 to 3000 ft
1500m to 5 km
500 to 1000 ft
800 to 1500m
200 to 500 ft
< 800m
< 200 ft
Symbols :   Thunderstorms  Fog  Heavy snow  Heavy precipitations  Wind > 20 kt
SIGMETs :     Misc.  Thunderstorms  Icing  Turbulence  Mountain Waves  Volcanic Ashes







- Airport Elevation : 1071 ft
- IATA code : LWO


UKLL - L'viv

CURRENT METAR :
  • 150800Z 08004MPS 9999 OVC005 M03/M04 Q1026 R13/820545 NOSIG

EXPIRED METARs :
  • 150730Z 08004MPS 9999 OVC005 M03/M04 Q1026 R13/820545 NOSIG
  • 150700Z 08004MPS 050V110 9999 OVC006 M03/M04 Q1026 R13/820545 NOSIG
  • 150630Z 08004MPS 9999 OVC006 M03/M04 Q1025 R13/820545 NOSIG
  • 150600Z 07005MPS 9999 OVC032 M03/M04 Q1025 R13/820545 NOSIG
  • 150531Z 08004MPS 9999 OVC026 M03/M04 Q1025 R13/820545 NOSIG
  • 150530Z 08004MPS 9999 OVC007 M03/M04 Q1025 R13/820545 NOSIG

TAF TAF UKLL
Valid from the 15 at 06:00 until the 16 at 06:00 UTC


150511Z 1506/1606 09005G10MPS 5000 -SN SCT004 OVC005 TXM01/1512Z TNM03/1506Z
BECMG 1509/1511 10006G12MPS 2100 -SN BR
TEMPO 1511/1606 11008G14MPS 0700 SHSN FZFG BKN003 BKN015CB
No reported NOTAMs for that airfield.



MET'MAP, your aeronautical weather chart ! - Copyright ORBIFLY December 2007 - Disclaimer

ORBIFLY MET'MAP TEAM :

Programming & Development : Alexandra Zaïnal
Concept & Development : Baudouin d'Aumeries
Co-Development & Prog : Marc-Olivier Méhu
Technical & hardware support : Manuel Goepfert

Contact : metmap@orbifly.com




SOURCES & CREDITS :

   NOAA